Time;durP1;ratioP1;P1;durP2;ratioP2;P2;SDS_P1;SDS_P2;PMS_P1;PMS_P2;Temp;Humidity;BMP_temperature;BMP_pressure;BME280_temperature;BME280_humidity;BME280_pressure;Samples;Min_cycle;Max_cycle;Signal;HPM_P1;HPM_P2
2022/08/20 00:00:44;;;;;;;3.47;3.17;;;;;;;23.03;57.17;98624.81;5112935;28;41535;-77
2022/08/20 00:03:16;;;;;;;4.63;3.10;;;;;;;23.04;57.14;98631.06;5113969;28;42433;-77
2022/08/20 00:05:50;;;;;;;3.00;2.77;;;;;;;23.02;57.08;98623.13;5109902;28;42243;-77
2022/08/20 00:08:19;;;;;;;3.13;2.87;;;;;;;23.00;57.21;98614.34;5111818;28;41018;-79
2022/08/20 00:10:49;;;;;;;3.00;2.73;;;;;;;22.98;57.22;98624.53;5112625;28;44057;-77
2022/08/20 00:13:23;;;;;;;3.47;3.17;;;;;;;22.96;57.35;98629.25;5112645;28;44944;-74
2022/08/20 00:15:50;;;;;;;3.30;3.03;;;;;;;22.94;57.44;98620.50;5110039;28;42484;-77
2022/08/20 00:18:18;;;;;;;3.40;3.10;;;;;;;22.93;58.00;98622.34;5111859;28;38690;-78
2022/08/20 00:20:51;;;;;;;4.20;3.80;;;;;;;22.91;58.75;98626.25;5112599;28;40742;-79
2022/08/20 00:23:19;;;;;;;4.03;3.60;;;;;;;22.87;58.84;98624.94;5110264;28;43514;-82
2022/08/20 00:25:48;;;;;;;3.57;3.07;;;;;;;22.84;58.44;98626.16;5095544;28;43181;-77
2022/08/20 00:28:16;;;;;;;3.70;3.40;;;;;;;22.75;58.70;98626.34;5112842;28;40737;-79
2022/08/20 00:30:46;;;;;;;3.47;3.17;;;;;;;22.71;58.54;98627.72;5113741;28;41679;-74
2022/08/20 00:33:16;;;;;;;3.20;3.00;;;;;;;22.65;58.42;98636.50;5113159;28;43718;-82
2022/08/20 00:35:55;;;;;;;3.60;3.30;;;;;;;22.61;58.71;98632.50;5112212;28;41275;-75
2022/08/20 00:38:23;;;;;;;2.90;2.70;;;;;;;22.56;58.48;98633.88;5111682;28;41127;-76
2022/08/20 00:40:55;;;;;;;3.13;2.93;;;;;;;22.36;58.77;98615.59;5113583;28;41631;-76
2022/08/20 00:43:31;;;;;;;3.67;3.43;;;;;;;22.47;59.32;98634.94;5111378;28;42903;-76
2022/08/20 00:46:00;;;;;;;4.53;3.83;;;;;;;22.43;59.11;98639.00;5112274;28;42637;-75
2022/08/20 00:48:31;;;;;;;4.37;4.00;;;;;;;22.39;59.31;98640.34;5113234;28;40777;-74
2022/08/20 00:51:04;;;;;;;3.90;3.20;;;;;;;22.28;59.14;98642.59;5095216;28;43258;-76
2022/08/20 00:53:33;;;;;;;3.60;3.30;;;;;;;22.26;58.78;98648.16;5110391;28;42730;-80
2022/08/20 00:56:02;;;;;;;3.30;3.03;;;;;;;22.20;59.28;98644.34;5112936;28;42324;-77
2022/08/20 00:58:30;;;;;;;2.93;2.73;;;;;;;22.15;59.32;98645.84;5111798;28;40200;-79
2022/08/20 01:00:58;;;;;;;3.30;3.10;;;;;;;22.12;59.26;98646.22;5094624;28;40484;-77
2022/08/20 01:03:26;;;;;;;3.30;3.00;;;;;;;22.06;59.26;98636.13;5113533;28;43167;-72
2022/08/20 01:05:54;;;;;;;3.23;2.93;;;;;;;22.02;59.08;98650.97;5111745;28;40871;-77
2022/08/20 01:08:25;;;;;;;2.90;2.67;;;;;;;21.99;58.88;98654.03;5111489;28;38784;-81
2022/08/20 01:11:06;;;;;;;3.13;2.93;;;;;;;21.99;59.00;98662.13;5110008;28;42532;-78
2022/08/20 01:13:36;;;;;;;3.17;2.87;;;;;;;21.96;58.86;98660.56;5110171;28;42434;-77
2022/08/20 01:16:08;;;;;;;3.20;2.90;;;;;;;21.96;58.94;98665.13;5111756;28;42409;-76
2022/08/20 01:18:38;;;;;;;3.10;2.90;;;;;;;21.95;59.31;98660.75;5109677;28;40225;-80
2022/08/20 01:21:07;;;;;;;3.57;3.27;;;;;;;21.96;59.37;98674.06;5112705;28;43950;-78
2022/08/20 01:23:41;;;;;;;4.00;3.53;;;;;;;21.97;59.00;98669.50;5094562;28;43318;-75
2022/08/20 01:26:13;;;;;;;3.53;3.23;;;;;;;21.97;59.36;98681.13;5108330;28;43228;-78
2022/08/20 01:28:44;;;;;;;2.93;2.73;;;;;;;21.97;59.29;98680.28;5111041;28;40922;-80
2022/08/20 01:31:17;;;;;;;3.83;3.53;;;;;;;21.95;59.08;98676.91;5095539;28;40136;-82
2022/08/20 01:33:46;;;;;;;3.20;3.00;;;;;;;22.01;59.27;98685.16;5112097;28;42936;-78
2022/08/20 01:36:16;;;;;;;3.77;3.10;;;;;;;22.04;59.00;98684.00;5112887;28;42345;-77
2022/08/20 01:38:45;;;;;;;3.73;3.43;;;;;;;22.04;59.17;98681.28;5113048;28;39246;-75
2022/08/20 01:41:24;;;;;;;3.90;3.30;;;;;;;22.04;59.28;98676.75;5094463;28;40624;-79
2022/08/20 01:43:56;;;;;;;3.37;3.07;;;;;;;22.05;58.74;98685.69;5111371;28;42726;-77
2022/08/20 01:46:25;;;;;;;3.50;3.20;;;;;;;22.04;58.65;98686.69;5111375;28;42880;-75
2022/08/20 01:48:54;;;;;;;3.37;3.07;;;;;;;21.92;58.74;98671.84;5112677;28;40941;-79
2022/08/20 01:51:26;;;;;;;3.10;2.90;;;;;;;21.95;58.89;98679.63;5111093;28;41782;-82
2022/08/20 01:53:58;;;;;;;3.40;3.10;;;;;;;21.90;58.99;98690.06;5110477;28;42843;-74
2022/08/20 01:56:30;;;;;;;2.97;2.70;;;;;;;21.84;59.33;98684.34;5108446;28;43041;-80
2022/08/20 01:59:00;;;;;;;3.67;3.37;;;;;;;21.80;59.37;98684.84;5111848;28;38965;-75
2022/08/20 02:01:32;;;;;;;3.53;3.27;;;;;;;21.77;59.25;98686.03;5113438;28;42613;-75
2022/08/20 02:04:02;;;;;;;3.87;3.27;;;;;;;21.71;59.23;98686.72;5109956;28;43402;-75
2022/08/20 02:06:32;;;;;;;3.17;2.97;;;;;;;21.62;59.40;98670.75;5112191;28;42276;-78
2022/08/20 02:09:02;;;;;;;3.97;3.57;;;;;;;21.58;59.43;98680.19;5110989;28;38733;-81
2022/08/20 02:11:33;;;;;;;4.43;3.67;;;;;;;21.51;59.96;98677.34;5112674;28;41967;-75
2022/08/20 02:14:02;;;;;;;4.13;3.73;;;;;;;21.45;60.22;98673.44;5110159;28;42539;-79
2022/08/20 02:16:32;;;;;;;3.70;3.40;;;;;;;21.39;60.25;98687.56;5111130;28;41222;-79
2022/08/20 02:19:08;;;;;;;4.03;3.63;;;;;;;21.35;60.10;98685.41;5111655;28;41912;-73
2022/08/20 02:21:39;;;;;;;4.43;4.03;;;;;;;21.29;60.28;98691.44;5107985;28;41889;-78
2022/08/20 02:24:08;;;;;;;4.23;3.93;;;;;;;21.22;60.27;98691.28;5111081;28;41654;-81
2022/08/20 02:26:37;;;;;;;4.00;3.60;;;;;;;21.17;60.48;98694.44;5111202;28;42161;-78
2022/08/20 02:29:07;;;;;;;4.60;4.23;;;;;;;21.12;60.53;98686.03;5111088;28;39076;-76
2022/08/20 02:31:37;;;;;;;4.70;4.30;;;;;;;21.07;60.50;98685.69;5112021;28;41762;-80
2022/08/20 02:34:08;;;;;;;4.53;4.10;;;;;;;21.01;60.70;98689.06;5110772;28;42589;-75
2022/08/20 02:36:36;;;;;;;4.57;4.17;;;;;;;20.96;60.52;98683.31;5110830;28;40817;-74
2022/08/20 02:39:06;;;;;;;5.13;4.63;;;;;;;20.95;60.24;98684.31;5112820;27;40845;-76
2022/08/20 02:41:34;;;;;;;4.07;3.77;;;;;;;20.92;60.10;98690.03;5113922;28;41019;-79
2022/08/20 02:44:04;;;;;;;4.60;4.20;;;;;;;20.88;60.14;98691.38;5114270;28;43791;-75
2022/08/20 02:46:31;;;;;;;4.83;4.30;;;;;;;20.85;60.15;98683.63;5115783;28;42541;-73
2022/08/20 02:49:00;;;;;;;4.47;4.07;;;;;;;20.81;60.32;98693.03;5115694;28;40299;-75
2022/08/20 02:51:28;;;;;;;4.77;4.37;;;;;;;20.76;60.38;98690.03;5113963;28;41805;-76
2022/08/20 02:53:56;;;;;;;4.60;4.20;;;;;;;20.74;60.12;98697.41;5113916;28;41694;-76
2022/08/20 02:56:24;;;;;;;5.23;4.77;;;;;;;20.69;60.79;98688.97;5115351;28;42248;-79
2022/08/20 02:58:51;;;;;;;4.57;3.80;;;;;;;20.66;60.97;98689.28;5114608;28;40878;-78
2022/08/20 03:01:21;;;;;;;5.53;5.03;;;;;;;20.63;60.91;98692.34;5114055;28;42987;-79
2022/08/20 03:03:49;;;;;;;5.60;4.33;;;;;;;20.26;60.48;98639.72;5113470;28;41612;-77
2022/08/20 03:06:16;;;;;;;4.80;4.40;;;;;;;20.59;60.74;98699.03;5114562;28;43167;-78
2022/08/20 03:08:45;;;;;;;5.43;4.57;;;;;;;20.53;60.95;98696.97;5113289;28;40125;-79
2022/08/20 03:11:12;;;;;;;4.80;4.40;;;;;;;20.67;60.78;98707.13;5096385;28;40510;-75
2022/08/20 03:13:40;;;;;;;5.10;4.70;;;;;;;20.77;60.31;98702.47;5113711;28;43322;-75
2022/08/20 03:16:08;;;;;;;4.80;4.40;;;;;;;20.87;60.31;98703.16;5114786;28;42478;-77
2022/08/20 03:18:40;;;;;;;4.30;3.90;;;;;;;20.95;59.83;98700.47;5113065;28;41027;-76
2022/08/20 03:21:09;;;;;;;4.70;4.30;;;;;;;21.03;59.53;98697.78;5113648;28;40853;-73
2022/08/20 03:23:38;;;;;;;5.10;4.60;;;;;;;21.07;59.62;98707.22;5096221;28;43133;-72
2022/08/20 03:26:09;;;;;;;4.57;4.20;;;;;;;21.14;59.45;98705.53;5113610;28;41077;-76
2022/08/20 03:28:37;;;;;;;4.57;4.17;;;;;;;21.18;59.13;98711.44;5096395;28;39025;-79
2022/08/20 03:31:05;;;;;;;5.27;4.77;;;;;;;21.21;58.97;98713.00;5114361;28;41565;-76
2022/08/20 03:33:34;;;;;;;5.30;4.90;;;;;;;21.22;59.09;98706.63;5096203;28;41797;-78
2022/08/20 03:36:04;;;;;;;4.63;4.23;;;;;;;21.25;58.78;98708.97;5113206;28;42729;-76
2022/08/20 03:38:32;;;;;;;5.00;4.60;;;;;;;21.25;58.87;98711.69;5112694;28;41019;-73
2022/08/20 03:41:00;;;;;;;5.33;4.03;;;;;;;21.24;58.51;98709.97;5114691;28;41632;-73
2022/08/20 03:43:28;;;;;;;4.60;4.20;;;;;;;21.25;58.83;98719.75;5116038;28;42834;-76
2022/08/20 03:45:55;;;;;;;4.70;4.30;;;;;;;21.27;58.33;98715.00;5116451;28;43111;-77
2022/08/20 03:48:24;;;;;;;5.00;4.60;;;;;;;21.28;58.51;98716.69;5112802;28;40492;-78
2022/08/20 03:50:51;;;;;;;5.50;5.00;;;;;;;21.29;58.42;98718.38;5112833;27;41573;-78
2022/08/20 03:53:21;;;;;;;5.03;4.63;;;;;;;21.30;58.27;98712.00;5114608;28;43107;-77
2022/08/20 03:55:54;;;;;;;5.83;4.77;;;;;;;21.30;58.16;98725.47;5113150;28;42745;-74
2022/08/20 03:58:23;;;;;;;6.33;5.23;;;;;;;21.32;58.28;98728.84;5111326;28;41830;-75
2022/08/20 04:00:51;;;;;;;4.30;3.90;;;;;;;21.30;58.28;98730.84;5113045;28;42666;-80
2022/08/20 04:03:19;;;;;;;4.90;4.50;;;;;;;21.32;58.26;98728.84;5112658;28;43038;-78
2022/08/20 04:05:47;;;;;;;4.67;4.27;;;;;;;21.32;58.19;98734.22;5114410;28;41938;-76
2022/08/20 04:08:17;;;;;;;5.13;4.63;;;;;;;21.33;57.79;98736.75;5095510;28;41443;-73
2022/08/20 04:10:48;;;;;;;5.00;4.60;;;;;;;21.33;57.61;98725.13;5114222;28;41556;-73
2022/08/20 04:13:17;;;;;;;4.60;4.20;;;;;;;21.37;57.82;98737.28;5112623;28;43148;-76
2022/08/20 04:15:46;;;;;;;4.57;4.20;;;;;;;21.35;57.60;98723.13;5112675;28;41964;-76
2022/08/20 04:18:19;;;;;;;5.73;4.20;;;;;;;21.32;57.76;98724.28;5113499;28;40013;-74
2022/08/20 04:20:47;;;;;;;4.83;4.33;;;;;;;21.29;57.70;98721.09;5112614;28;40734;-74
2022/08/20 04:23:15;;;;;;;4.20;3.90;;;;;;;21.26;57.62;98729.53;5095627;28;43057;-80
2022/08/20 04:25:45;;;;;;;3.63;3.33;;;;;;;21.23;57.87;98735.22;5113068;28;42538;-75
2022/08/20 04:28:20;;;;;;;4.13;3.73;;;;;;;21.21;58.00;98731.84;5095498;28;38837;-80
2022/08/20 04:30:48;;;;;;;4.00;3.70;;;;;;;21.20;57.71;98730.16;5109130;28;41992;-77
2022/08/20 04:33:16;;;;;;;4.73;4.33;;;;;;;21.16;57.88;98729.63;5095869;28;41504;-75
2022/08/20 04:35:44;;;;;;;5.50;4.80;;;;;;;21.11;58.28;98732.81;5112902;28;42476;-76
2022/08/20 04:38:15;;;;;;;5.23;4.70;;;;;;;21.02;58.00;98731.09;5095874;28;40012;-80
2022/08/20 04:40:59;;;;;;;4.47;4.07;;;;;;;21.01;58.19;98742.06;5110747;28;42067;-75
2022/08/20 04:43:32;;;;;;;4.33;3.93;;;;;;;20.95;58.32;98742.72;5110914;28;43728;-81
2022/08/20 04:46:01;;;;;;;5.07;4.57;;;;;;;20.89;58.54;98755.00;5111993;28;42494;-79
2022/08/20 04:48:29;;;;;;;4.53;4.23;;;;;;;20.90;58.67;98751.25;5095215;28;39831;-78
2022/08/20 04:50:58;;;;;;;4.07;3.77;;;;;;;20.91;58.47;98760.19;5095304;28;40842;-77
2022/08/20 04:53:28;;;;;;;4.80;4.40;;;;;;;20.92;58.42;98754.66;5113193;28;42720;-76
2022/08/20 04:55:58;;;;;;;5.03;4.63;;;;;;;20.98;58.47;98759.38;5094969;28;41513;-74
2022/08/20 04:58:30;;;;;;;5.60;4.63;;;;;;;21.06;58.39;98762.09;5113482;28;40607;-75
2022/08/20 05:01:00;;;;;;;4.60;4.30;;;;;;;21.13;58.22;98765.81;5095209;27;42150;-80
2022/08/20 05:03:29;;;;;;;5.13;4.63;;;;;;;21.22;58.17;98765.88;5111131;28;43525;-78
2022/08/20 05:05:57;;;;;;;4.67;4.20;;;;;;;21.31;58.10;98770.25;5111212;28;42151;-78
2022/08/20 05:08:26;;;;;;;4.90;4.50;;;;;;;21.39;57.83;98772.94;5111878;28;41014;-75
2022/08/20 05:10:56;;;;;;;4.67;4.27;;;;;;;21.43;57.89;98779.69;5112784;28;42716;-77
2022/08/20 05:13:24;;;;;;;4.67;4.27;;;;;;;21.51;57.80;98777.03;5111739;28;43578;-73
2022/08/20 05:15:55;;;;;;;5.47;4.97;;;;;;;21.57;57.60;98781.75;5111875;28;42425;-76
2022/08/20 05:18:25;;;;;;;4.90;4.40;;;;;;;21.63;57.49;98785.63;5112904;28;40046;-78
2022/08/20 05:20:54;;;;;;;4.87;4.47;;;;;;;21.60;57.15;98764.41;5110976;28;42480;-78
2022/08/20 05:23:23;;;;;;;4.87;4.37;;;;;;;21.77;57.17;98790.31;5113171;28;20226;-76
2022/08/20 05:25:51;;;;;;;6.03;4.70;;;;;;;21.79;56.79;98791.84;5112372;28;41594;-77
2022/08/20 05:28:20;;;;;;;4.77;4.40;;;;;;;21.85;56.64;98791.19;5112293;28;40950;-80
2022/08/20 05:30:49;;;;;;;4.40;4.10;;;;;;;21.93;56.51;98792.19;5111715;28;40716;-80
2022/08/20 05:33:20;;;;;;;6.07;4.47;;;;;;;21.98;56.47;98795.22;5112512;28;42495;-75
2022/08/20 05:35:51;;;;;;;5.00;4.33;;;;;;;22.03;56.40;98792.88;5107948;28;43210;-74
2022/08/20 05:38:23;;;;;;;4.53;4.13;;;;;;;22.10;56.07;98791.22;5111196;28;40804;-82
2022/08/20 05:40:52;;;;;;;4.73;4.33;;;;;;;22.16;56.22;98793.19;5109721;28;42080;-74
2022/08/20 05:43:20;;;;;;;4.80;4.40;;;;;;;22.24;55.89;98795.06;5110746;28;42059;-75
2022/08/20 05:45:50;;;;;;;4.37;4.00;;;;;;;22.30;56.04;98795.22;5110933;28;43042;-75
2022/08/20 05:48:24;;;;;;;4.03;3.67;;;;;;;22.38;55.72;98800.56;5111052;28;39939;-75
2022/08/20 05:50:55;;;;;;;4.97;4.47;;;;;;;22.47;55.33;98802.25;5107960;28;42692;-73
2022/08/20 05:53:24;;;;;;;4.23;3.87;;;;;;;22.57;55.38;98805.59;5110857;28;41318;-73
2022/08/20 05:55:53;;;;;;;4.23;3.83;;;;;;;22.68;55.26;98798.13;5111965;28;42049;-75
2022/08/20 05:58:24;;;;;;;4.30;3.90;;;;;;;22.77;55.26;98802.53;5093807;28;40291;-73
2022/08/20 06:00:54;;;;;;;4.00;3.70;;;;;;;22.87;54.89;98805.88;5112014;28;41395;-73
2022/08/20 06:06:09;;;;;;;4.20;3.90;;;;;;;23.05;54.61;98811.88;5104059;28;42315;-76
2022/08/20 06:08:37;;;;;;;4.70;4.03;;;;;;;23.17;54.44;98810.44;5090768;28;39010;-75
2022/08/20 06:11:05;;;;;;;4.43;4.07;;;;;;;23.27;54.42;98810.22;5111272;28;41723;-74
2022/08/20 06:13:33;;;;;;;4.83;4.33;;;;;;;23.36;53.97;98811.03;5111364;27;42758;-74
2022/08/20 06:16:01;;;;;;;4.63;4.07;;;;;;;23.43;54.21;98812.84;5093839;28;41129;-78
2022/08/20 06:18:31;;;;;;;4.27;3.87;;;;;;;23.54;53.74;98812.44;5113190;28;40266;-74
2022/08/20 06:20:58;;;;;;;4.47;4.07;;;;;;;23.60;53.40;98810.91;5097104;28;41404;-77
2022/08/20 06:23:26;;;;;;;4.03;3.73;;;;;;;23.70;53.13;98806.09;5113375;28;41684;-77
2022/08/20 06:25:54;;;;;;;5.30;3.77;;;;;;;23.81;53.28;98807.53;5114932;28;42057;-73
2022/08/20 06:28:22;;;;;;;5.73;4.20;;;;;;;23.94;52.90;98814.03;5114460;28;41636;-77
2022/08/20 06:30:49;;;;;;;5.10;4.60;;;;;;;24.07;52.60;98817.97;5096880;28;40343;-76
2022/08/20 06:33:17;;;;;;;4.13;3.80;;;;;;;24.16;52.19;98816.88;5096084;28;42136;-78
2022/08/20 06:35:47;;;;;;;4.60;4.13;;;;;;;23.92;52.44;98761.13;5113630;28;40904;-79
2022/08/20 06:38:15;;;;;;;4.47;4.07;;;;;;;24.44;52.18;98823.41;5113121;28;39868;-79
2022/08/20 06:40:43;;;;;;;4.30;3.90;;;;;;;24.55;51.67;98812.09;5113660;28;41575;-76
2022/08/20 06:43:11;;;;;;;4.80;4.40;;;;;;;24.73;51.38;98827.97;5113131;28;41658;-76
2022/08/20 06:45:39;;;;;;;4.40;3.97;;;;;;;24.85;51.19;98828.38;5096503;28;40889;-74
2022/08/20 06:48:09;;;;;;;4.80;4.13;;;;;;;25.00;50.66;98837.34;5112822;28;40205;-79
2022/08/20 06:50:40;;;;;;;4.90;4.40;;;;;;;25.16;50.47;98831.72;5113082;28;40836;-78
2022/08/20 06:53:11;;;;;;;4.97;4.50;;;;;;;25.47;50.15;98836.88;5114008;28;42591;-78
2022/08/20 06:55:42;;;;;;;4.80;3.60;;;;;;;25.78;49.23;98842.06;5114038;28;42794;-77
2022/08/20 06:58:13;;;;;;;3.93;3.63;;;;;;;26.08;48.82;98848.22;5112295;28;39900;-79
2022/08/20 07:00:42;;;;;;;4.00;3.70;;;;;;;26.30;48.30;98849.88;5113478;28;42378;-79
2022/08/20 07:03:12;;;;;;;5.20;4.70;;;;;;;26.38;48.19;98849.72;5112651;28;42194;-78
2022/08/20 07:05:42;;;;;;;4.83;4.03;;;;;;;26.61;47.84;98860.34;5113192;28;42496;-75
2022/08/20 07:08:13;;;;;;;5.10;4.20;;;;;;;26.76;47.61;98855.66;5113714;28;40171;-79
2022/08/20 07:10:42;;;;;;;4.23;3.90;;;;;;;26.94;47.45;98859.78;5113783;28;42443;-75
2022/08/20 07:13:10;;;;;;;4.23;3.87;;;;;;;27.02;47.00;98846.00;5112230;28;42915;-74
2022/08/20 07:15:38;;;;;;;5.30;4.50;;;;;;;27.21;46.36;98856.13;5112644;28;41057;-77
2022/08/20 07:18:07;;;;;;;5.20;3.83;;;;;;;27.33;46.38;98857.22;5111482;28;39860;-74
2022/08/20 07:20:37;;;;;;;4.17;3.77;;;;;;;27.46;46.25;98860.00;5109296;28;42451;-75
2022/08/20 07:23:04;;;;;;;4.80;4.40;;;;;;;27.43;46.02;98838.66;5112481;28;42941;-75
2022/08/20 07:25:35;;;;;;;4.57;4.17;;;;;;;27.58;45.95;98856.72;5113024;27;43688;-79
2022/08/20 07:28:04;;;;;;;5.33;4.20;;;;;;;27.67;45.71;98856.34;5112069;28;39950;-78
2022/08/20 07:33:18;;;;;;;4.60;4.20;;;;;;;27.91;45.42;98862.25;5094767;28;42618;-75
2022/08/20 07:35:47;;;;;;;4.57;3.83;;;;;;;28.06;45.25;98861.03;5112887;28;41343;-73
2022/08/20 07:38:23;;;;;;;4.70;4.30;;;;;;;28.31;44.98;98872.19;5113001;28;39881;-74
2022/08/20 07:40:53;;;;;;;4.77;4.27;;;;;;;28.50;44.36;98873.22;5112294;28;42859;-77
2022/08/20 07:43:22;;;;;;;4.97;4.50;;;;;;;28.68;43.90;98878.88;5095122;28;42147;-75
2022/08/20 07:45:51;;;;;;;5.60;4.27;;;;;;;28.93;43.87;98882.63;5112435;28;42366;-77
2022/08/20 07:48:19;;;;;;;4.77;4.33;;;;;;;29.16;43.11;98894.97;5094940;28;38716;-76
2022/08/20 07:50:48;;;;;;;5.30;4.80;;;;;;;29.25;42.96;98888.22;5112961;28;42933;-75
2022/08/20 07:53:16;;;;;;;5.13;4.63;;;;;;;29.31;43.22;98898.25;5094931;28;41724;-79
2022/08/20 07:55:44;;;;;;;4.90;4.40;;;;;;;29.41;42.93;98889.66;5095364;28;43894;-79
2022/08/20 07:58:18;;;;;;;5.63;4.60;;;;;;;29.39;42.55;98900.81;5113232;28;40930;-76
2022/08/20 08:00:46;;;;;;;4.50;4.10;;;;;;;29.34;43.04;98897.00;5109476;28;42768;-76
2022/08/20 08:03:14;;;;;;;6.73;4.13;;;;;;;29.29;42.88;98900.38;5094418;28;42922;-77
2022/08/20 08:05:45;;;;;;;5.33;4.33;;;;;;;29.15;42.97;98894.13;5094802;28;41474;-75
2022/08/20 08:08:19;;;;;;;5.47;4.43;;;;;;;28.93;43.52;98896.25;5110112;28;40628;-76
2022/08/20 08:10:49;;;;;;;4.20;3.80;;;;;;;28.73;43.79;98906.31;5095036;28;42278;-77
2022/08/20 08:13:34;;;;;;;4.03;3.63;;;;;;;28.54;44.08;98890.84;5094439;28;41962;-78
2022/08/20 08:16:04;;;;;;;5.13;4.57;;;;;;;28.51;44.49;98891.25;5110248;28;42153;-79
2022/08/20 08:18:38;;;;;;;3.67;3.37;;;;;;;28.45;44.48;98887.47;5111577;28;39155;-80
2022/08/20 08:21:07;;;;;;;4.57;3.57;;;;;;;28.46;44.52;98893.75;5109091;28;41737;-78
2022/08/20 08:23:35;;;;;;;4.00;3.63;;;;;;;28.53;44.56;98894.63;5111194;28;41588;-77
2022/08/20 08:26:02;;;;;;;6.13;4.07;;;;;;;28.58;44.59;98897.53;5111745;28;42273;-75
2022/08/20 08:28:32;;;;;;;4.07;3.67;;;;;;;28.55;44.61;98903.41;5111819;28;40057;-77
2022/08/20 08:31:00;;;;;;;4.40;4.00;;;;;;;28.59;44.65;98905.50;5113088;28;41676;-81
2022/08/20 08:33:31;;;;;;;5.70;3.70;;;;;;;28.63;44.38;98911.38;5094864;28;41794;-76
2022/08/20 08:36:01;;;;;;;4.33;3.67;;;;;;;28.56;44.49;98910.53;5127954;27;43183;-72
2022/08/20 08:38:30;;;;;;;4.97;4.23;;;;;;;28.53;44.81;98917.25;5110791;28;39275;-77
2022/08/20 08:41:03;;;;;;;5.93;4.40;;;;;;;28.49;44.56;98915.13;5112775;28;41810;-78
2022/08/20 08:43:33;;;;;;;4.77;4.27;;;;;;;28.52;44.80;98914.72;5110489;28;42802;-76
2022/08/20 08:46:05;;;;;;;8.57;4.47;;;;;;;28.69;44.52;98909.69;5111215;28;42080;-75
2022/08/20 08:48:37;;;;;;;4.53;4.13;;;;;;;28.89;44.13;98925.03;5093777;28;39276;-76
2022/08/20 08:51:11;;;;;;;4.47;4.07;;;;;;;28.95;43.86;98926.88;5111649;28;40828;-77
2022/08/20 08:53:44;;;;;;;5.07;4.57;;;;;;;29.07;43.78;98918.03;5109294;28;42770;-77
2022/08/20 08:56:14;;;;;;;4.87;4.43;;;;;;;29.07;43.41;98912.59;5094173;28;41262;-74
2022/08/20 08:58:43;;;;;;;5.20;4.70;;;;;;;29.22;43.62;98935.00;5111972;28;41933;-74
2022/08/20 09:01:12;;;;;;;5.60;4.90;;;;;;;29.30;43.25;98929.34;5111354;28;41644;-79
2022/08/20 09:03:43;;;;;;;6.37;5.77;;;;;;;29.39;43.08;98939.00;5110558;28;42847;-75
2022/08/20 09:06:15;;;;;;;6.20;5.60;;;;;;;29.40;42.72;98924.31;5111114;28;42621;-77
2022/08/20 09:08:46;;;;;;;6.50;5.87;;;;;;;29.31;42.95;98904.56;5110346;28;38738;-78
2022/08/20 09:11:16;;;;;;;5.53;5.00;;;;;;;29.83;42.48;98929.16;5108144;28;41647;-76
2022/08/20 09:13:45;;;;;;;5.73;4.73;;;;;;;30.06;42.21;98924.00;5110233;28;42887;-76
2022/08/20 09:16:14;;;;;;;4.87;4.47;;;;;;;30.17;42.05;98927.94;5093912;28;41147;-76
2022/08/20 09:18:42;;;;;;;5.73;4.53;;;;;;;30.24;41.96;98932.31;5092899;28;39700;-78
2022/08/20 09:21:10;;;;;;;5.10;4.60;;;;;;;30.26;41.61;98927.47;5110563;28;42869;-77
2022/08/20 09:23:38;;;;;;;5.53;5.03;;;;;;;30.25;41.86;98942.19;5093163;28;42871;-75
2022/08/20 09:26:06;;;;;;;5.27;4.77;;;;;;;30.11;41.79;98928.81;5111036;28;43821;-78
2022/08/20 09:28:34;;;;;;;5.60;5.10;;;;;;;30.06;41.97;98932.22;5093313;28;38907;-78
2022/08/20 09:31:04;;;;;;;5.40;4.97;;;;;;;29.95;42.29;98930.97;5109793;28;42493;-74
2022/08/20 09:33:32;;;;;;;5.00;4.53;;;;;;;29.81;42.15;98937.56;5110635;28;42754;-76
2022/08/20 09:36:00;;;;;;;5.67;5.17;;;;;;;29.74;42.56;98935.94;5093581;28;42108;-74
2022/08/20 09:38:28;;;;;;;5.03;4.63;;;;;;;29.67;42.84;98933.25;5093373;28;40320;-73
2022/08/20 09:40:55;;;;;;;5.10;4.60;;;;;;;29.64;43.02;98930.94;5110847;28;44036;-78
2022/08/20 09:43:23;;;;;;;4.70;4.40;;;;;;;29.40;43.26;98921.56;5093377;28;41684;-79
2022/08/20 09:45:51;;;;;;;5.30;4.80;;;;;;;29.32;43.63;98921.75;5110222;28;42290;-78
2022/08/20 09:48:20;;;;;;;4.47;4.17;;;;;;;29.19;43.87;98919.91;5111723;27;41458;-74
2022/08/20 09:50:49;;;;;;;5.30;4.90;;;;;;;29.07;44.34;98912.59;5115460;28;41510;-72
2022/08/20 09:53:20;;;;;;;4.50;4.10;;;;;;;28.97;44.26;98920.38;5096028;28;41757;-76
2022/08/20 09:55:52;;;;;;;6.27;5.37;;;;;;;28.93;44.68;98917.25;5114163;28;43279;-76
2022/08/20 09:58:24;;;;;;;5.07;4.67;;;;;;;28.98;44.68;98908.44;5113560;28;39187;-77
2022/08/20 10:00:52;;;;;;;5.73;5.23;;;;;;;29.08;44.71;98903.38;5112127;28;41715;-75
2022/08/20 10:03:21;;;;;;;5.00;4.60;;;;;;;28.99;44.54;98872.75;5112617;28;42596;-75
2022/08/20 10:05:49;;;;;;;5.23;4.77;;;;;;;29.32;44.38;98913.56;5096623;28;40832;-75
2022/08/20 10:08:17;;;;;;;6.77;4.90;;;;;;;29.41;44.51;98908.78;5113405;28;41010;-76
2022/08/20 10:10:44;;;;;;;4.50;4.20;;;;;;;29.50;44.42;98919.22;5114074;28;41906;-75
2022/08/20 10:13:12;;;;;;;4.70;4.27;;;;;;;29.61;44.07;98915.81;5114018;28;43719;-75
2022/08/20 10:15:39;;;;;;;4.70;4.30;;;;;;;29.70;44.38;98904.63;5096679;28;41013;-75
2022/08/20 10:18:07;;;;;;;4.93;3.93;;;;;;;29.78;44.29;98898.94;5114049;28;40021;-78
2022/08/20 10:20:37;;;;;;;4.30;3.90;;;;;;;29.85;44.35;98907.94;5113646;28;40671;-74
2022/08/20 10:23:04;;;;;;;4.50;4.10;;;;;;;29.97;44.03;98906.22;5112318;28;43751;-75
2022/08/20 10:25:32;;;;;;;5.47;4.97;;;;;;;30.15;43.37;98906.31;5114525;28;42082;-75
2022/08/20 10:28:00;;;;;;;4.10;3.70;;;;;;;30.38;43.11;98902.16;5112810;28;39668;-74
2022/08/20 10:30:28;;;;;;;4.73;4.30;;;;;;;30.65;42.86;98911.88;5112615;28;40556;-74
2022/08/20 10:32:56;;;;;;;4.80;4.40;;;;;;;30.84;42.57;98907.25;5094825;28;42810;-75
2022/08/20 10:35:24;;;;;;;4.90;4.40;;;;;;;30.99;42.25;98908.59;5114430;28;42244;-74
2022/08/20 10:37:53;;;;;;;5.40;5.00;;;;;;;31.13;41.69;98909.31;5113624;28;41030;-75
2022/08/20 10:40:21;;;;;;;5.37;4.93;;;;;;;31.21;40.94;98913.66;5113256;28;40034;-73
2022/08/20 10:42:50;;;;;;;4.97;4.57;;;;;;;31.30;40.85;98915.84;5112475;28;42254;-75
2022/08/20 10:45:18;;;;;;;5.50;5.00;;;;;;;31.38;40.43;98917.47;5112995;28;42161;-75
2022/08/20 10:47:46;;;;;;;4.83;4.43;;;;;;;31.40;40.22;98915.34;5112998;28;40145;-74
2022/08/20 10:50:18;;;;;;;5.13;4.73;;;;;;;31.41;40.10;98911.50;5113754;28;42618;-77
2022/08/20 10:52:47;;;;;;;3.93;3.63;;;;;;;31.41;40.11;98912.34;5096312;28;42023;-76
2022/08/20 10:55:17;;;;;;;3.70;3.50;;;;;;;31.51;39.93;98911.00;5113217;28;43223;-79
2022/08/20 10:57:45;;;;;;;3.60;3.30;;;;;;;31.66;40.24;98909.53;5112879;28;39170;-78
2022/08/20 11:00:14;;;;;;;4.13;3.83;;;;;;;31.97;39.88;98904.94;5112438;28;41732;-77
2022/08/20 11:02:42;;;;;;;3.50;3.30;;;;;;;32.45;39.14;98915.81;5112748;28;43677;-75
2022/08/20 11:05:10;;;;;;;3.27;3.07;;;;;;;33.07;38.20;98919.84;5113915;28;43247;-74
2022/08/20 11:07:40;;;;;;;3.10;2.90;;;;;;;34.14;37.12;98913.88;5114501;28;39836;-83
2022/08/20 11:10:10;;;;;;;3.37;3.17;;;;;;;35.99;33.55;98929.97;5115133;28;42149;-80
2022/08/20 11:12:39;;;;;;;3.17;2.97;;;;;;;37.12;31.78;98943.72;5112683;28;42433;-77
2022/08/20 11:15:08;;;;;;;3.33;3.13;;;;;;;37.38;30.70;98951.09;5112630;28;40964;-76
2022/08/20 11:17:39;;;;;;;3.00;2.80;;;;;;;37.65;30.55;98939.09;5095551;28;39271;-75
2022/08/20 11:20:09;;;;;;;2.87;2.63;;;;;;;38.95;28.47;98956.25;5110322;28;41737;-77
2022/08/20 11:22:37;;;;;;;2.80;2.60;;;;;;;40.10;26.90;98964.59;5113775;28;42803;-80
2022/08/20 11:25:07;;;;;;;2.95;2.75;;;;;;;40.59;27.13;98947.09;5095541;28;42133;-78
2022/08/20 11:27:37;;;;;;;2.88;2.67;;;;;;;40.75;26.43;98953.41;5094159;28;40996;-74
2022/08/20 11:30:10;;;;;;;3.10;2.90;;;;;;;40.17;26.09;98956.81;5112707;28;40801;-79
2022/08/20 11:32:38;;;;;;;3.03;2.83;;;;;;;39.31;26.94;98957.09;5110835;28;44123;-76
2022/08/20 11:35:06;;;;;;;2.77;2.67;;;;;;;38.43;28.36;98942.69;5112472;28;42257;-76
2022/08/20 11:37:34;;;;;;;3.20;3.00;;;;;;;36.82;32.04;98915.91;5112174;28;38935;-77
2022/08/20 11:40:01;;;;;;;3.10;2.90;;;;;;;35.32;34.35;98901.00;5095864;28;40874;-78
2022/08/20 11:42:29;;;;;;;4.67;3.77;;;;;;;34.43;36.40;98899.03;5112096;28;42701;-80
2022/08/20 11:44:56;;;;;;;3.50;3.20;;;;;;;33.41;39.13;98889.84;5095261;28;42346;-80
2022/08/20 11:47:28;;;;;;;9.20;4.60;;;;;;;32.30;42.65;98866.91;5114150;28;39872;-75
2022/08/20 11:49:58;;;;;;;7.03;4.03;;;;;;;31.30;45.68;98854.81;5112302;28;42260;-76